Time;durP1;ratioP1;P1;durP2;ratioP2;P2;SDS_P1;SDS_P2;PMS_P1;PMS_P2;Temp;Humidity;BMP_temperature;BMP_pressure;BME280_temperature;BME280_humidity;BME280_pressure;Samples;Min_cycle;Max_cycle;Signal;HPM_P1;HPM_P2
2022/05/10 00:00:21;;;;;;;3.88;3.30;;;17.40;52.30;;;;;;5113396;28;20098;-74
2022/05/10 00:02:50;;;;;;;5.70;3.30;;;17.40;52.60;;;;;;5111042;28;20032;-74
2022/05/10 00:05:24;;;;;;;3.67;2.90;;;17.30;52.50;;;;;;5075041;28;20024;-73
2022/05/10 00:07:50;;;;;;;4.68;2.80;;;17.30;52.40;;;;;;5075584;28;20373;-74
2022/05/10 00:10:16;;;;;;;9.32;3.25;;;17.30;52.60;;;;;;5108274;28;20052;-73
2022/05/10 00:12:42;;;;;;;3.08;2.75;;;17.30;52.70;;;;;;5100430;28;20024;-73
2022/05/10 00:15:09;;;;;;;6.03;2.92;;;17.20;52.50;;;;;;5112985;28;20049;-73
2022/05/10 00:17:39;;;;;;;4.15;2.45;;;17.20;52.50;;;;;;5099279;28;20434;-73
2022/05/10 00:20:11;;;;;;;5.80;3.10;;;17.10;52.90;;;;;;5092596;28;20028;-73
2022/05/10 00:22:38;;;;;;;4.63;3.10;;;17.10;52.90;;;;;;5074439;28;20031;-74
2022/05/10 00:25:07;;;;;;;6.82;2.65;;;17.10;52.90;;;;;;5092557;28;20021;-74
2022/05/10 00:27:32;;;;;;;24.85;5.68;;;17.10;52.90;;;;;;5092614;28;20052;-73
2022/05/10 00:29:59;;;;;;;3.63;2.60;;;17.00;52.70;;;;;;5092633;28;20048;-73
2022/05/10 00:32:31;;;;;;;4.50;2.33;;;17.00;52.70;;;;;;5092534;28;20024;-73
2022/05/10 00:34:57;;;;;;;4.72;2.50;;;17.00;52.90;;;;;;5092609;28;20047;-73
2022/05/10 00:37:23;;;;;;;8.20;2.53;;;17.00;52.80;;;;;;5092502;28;20101;-74
2022/05/10 00:39:50;;;;;;;2.70;2.42;;;16.90;52.90;;;;;;5092490;28;20020;-74
2022/05/10 00:42:27;;;;;;;4.25;2.80;;;16.90;53.00;;;;;;5099444;28;20085;-73
2022/05/10 00:45:07;;;;;;;6.18;3.28;;;16.90;53.30;;;;;;5112777;28;20389;-73
2022/05/10 00:47:41;;;;;;;3.83;2.85;;;16.90;53.60;;;;;;5095916;28;20365;-74
2022/05/10 00:50:22;;;;;;;3.63;2.58;;;16.80;53.60;;;;;;5116807;28;20031;-74
2022/05/10 00:52:59;;;;;;;3.38;3.05;;;16.80;53.50;;;;;;5116783;28;20031;-73
2022/05/10 00:55:34;;;;;;;3.70;2.58;;;16.80;53.70;;;;;;5116460;28;20026;-73
2022/05/10 00:58:10;;;;;;;5.63;2.88;;;16.80;53.80;;;;;;5116388;28;20024;-74
2022/05/10 01:00:37;;;;;;;3.67;3.05;;;16.70;53.60;;;;;;5104271;28;20048;-73
2022/05/10 01:03:18;;;;;;;4.88;3.40;;;16.70;53.60;;;;;;5116214;28;20038;-74
2022/05/10 01:06:08;;;;;;;4.07;3.20;;;16.60;53.80;;;;;;5116352;28;20020;-73
2022/05/10 01:08:47;;;;;;;4.90;3.00;;;16.60;53.90;;;;;;5116226;28;20104;-73
2022/05/10 01:11:34;;;;;;;4.75;3.35;;;16.60;53.90;;;;;;5116156;28;20016;-74
2022/05/10 01:14:11;;;;;;;3.53;3.10;;;16.60;54.10;;;;;;5116134;28;20586;-74
2022/05/10 01:16:37;;;;;;;5.50;3.28;;;16.50;54.00;;;;;;5116023;28;20034;-74
2022/05/10 01:19:03;;;;;;;3.65;2.50;;;16.50;54.10;;;;;;5113821;28;20477;-74
2022/05/10 01:21:57;;;;;;;3.55;2.70;;;16.40;54.20;;;;;;5104321;28;20035;-73
2022/05/10 01:24:44;;;;;;;8.75;2.88;;;16.40;54.40;;;;;;5115940;28;20039;-73
2022/05/10 01:27:45;;;;;;;4.22;2.40;;;16.40;54.50;;;;;;5095437;28;20020;-73
2022/05/10 01:30:14;;;;;;;4.18;3.00;;;16.30;54.50;;;;;;5090551;28;20443;-73
2022/05/10 01:36:13;;;;;;;4.03;2.83;;;16.30;54.40;;;;;;5096460;28;20042;-73
2022/05/10 01:39:03;;;;;;;8.52;3.42;;;16.20;54.60;;;;;;5095190;28;20044;-74
2022/05/10 01:42:04;;;;;;;4.93;3.15;;;16.20;55.00;;;;;;5095215;28;20020;-73
2022/05/10 01:44:47;;;;;;;3.20;2.90;;;16.20;55.10;;;;;;5077378;28;20038;-73
2022/05/10 01:47:20;;;;;;;6.45;2.67;;;16.20;55.00;;;;;;5095137;28;20020;-73
2022/05/10 01:49:48;;;;;;;4.38;3.13;;;16.20;55.00;;;;;;5095409;28;20119;-73
2022/05/10 01:52:25;;;;;;;4.53;2.63;;;16.10;55.10;;;;;;5076944;28;20035;-73
2022/05/10 01:55:11;;;;;;;5.47;3.30;;;16.10;55.00;;;;;;5084192;28;20024;-73
2022/05/10 01:57:38;;;;;;;6.45;2.70;;;16.00;55.20;;;;;;5096425;28;20036;-73
2022/05/10 02:00:26;;;;;;;4.13;2.90;;;16.00;55.20;;;;;;5095901;28;20040;-73
2022/05/10 02:02:57;;;;;;;3.35;2.65;;;16.00;55.50;;;;;;5115276;28;20023;-73
2022/05/10 02:05:39;;;;;;;4.63;3.40;;;16.00;55.50;;;;;;5115156;28;20047;-73
2022/05/10 02:08:25;;;;;;;3.22;2.60;;;15.90;56.10;;;;;;5115167;28;20387;-74
2022/05/10 02:10:56;;;;;;;7.65;2.63;;;15.90;56.00;;;;;;5115130;28;20102;-74
2022/05/10 02:13:28;;;;;;;3.58;3.15;;;15.90;56.20;;;;;;5113720;28;20023;-74
2022/05/10 02:15:58;;;;;;;4.47;3.17;;;15.90;56.10;;;;;;5094737;28;20023;-73
2022/05/10 02:18:31;;;;;;;3.30;2.90;;;15.90;56.20;;;;;;5094737;28;20020;-74
2022/05/10 02:21:22;;;;;;;5.53;3.15;;;15.90;56.40;;;;;;5076635;28;20024;-74
2022/05/10 02:23:53;;;;;;;6.68;3.35;;;15.80;56.50;;;;;;5083165;28;20035;-74
2022/05/10 02:26:28;;;;;;;3.92;2.95;;;15.80;56.40;;;;;;5094604;28;20024;-74
2022/05/10 02:29:16;;;;;;;4.32;3.03;;;15.80;56.40;;;;;;5094603;28;20016;-74
2022/05/10 02:34:53;;;;;;;3.70;2.70;;;15.70;56.40;;;;;;5094453;28;20043;-74
2022/05/10 02:37:19;;;;;;;3.72;3.28;;;15.70;56.30;;;;;;5094282;28;20024;-74
2022/05/10 02:39:45;;;;;;;5.30;3.67;;;15.70;56.40;;;;;;5094347;28;20027;-74
2022/05/10 02:42:14;;;;;;;4.97;3.67;;;15.60;56.90;;;;;;5094231;28;20026;-74
2022/05/10 02:44:41;;;;;;;3.75;3.00;;;15.60;57.20;;;;;;5094256;28;20477;-74
2022/05/10 02:47:08;;;;;;;3.40;2.90;;;15.60;56.90;;;;;;5094210;28;20027;-74
2022/05/10 02:49:36;;;;;;;4.68;3.67;;;15.60;56.80;;;;;;5075892;28;20020;-74
2022/05/10 02:52:03;;;;;;;4.95;3.22;;;15.60;57.30;;;;;;5094039;28;20500;-74
2022/05/10 02:54:29;;;;;;;3.80;3.33;;;15.60;57.20;;;;;;5093910;28;20024;-74
2022/05/10 02:56:55;;;;;;;6.38;3.55;;;15.60;57.50;;;;;;5093917;28;20078;-74
2022/05/10 02:59:29;;;;;;;6.78;3.63;;;15.50;57.50;;;;;;5093590;28;20048;-74
2022/05/10 03:02:01;;;;;;;;;;;15.50;57.50;;;;;;5094349;28;20025;-74
2022/05/10 03:04:43;;;;;;;3.88;3.35;;;15.50;56.60;;;;;;5093816;28;20400;-74
2022/05/10 03:07:10;;;;;;;7.38;4.40;;;15.50;57.20;;;;;;5093637;28;20031;-73
2022/05/10 03:09:36;;;;;;;5.00;4.30;;;15.50;57.20;;;;;;5093626;28;20099;-73
2022/05/10 03:12:04;;;;;;;8.75;3.83;;;15.50;57.50;;;;;;5093617;28;20111;-74
2022/05/10 03:14:30;;;;;;;4.93;3.42;;;15.40;57.40;;;;;;5093423;28;20020;-73
2022/05/10 03:16:56;;;;;;;5.50;3.70;;;15.40;57.30;;;;;;5093511;28;20035;-74
2022/05/10 03:19:22;;;;;;;6.40;3.80;;;15.40;57.40;;;;;;5093429;28;20015;-73
2022/05/10 03:21:48;;;;;;;4.07;3.67;;;15.40;57.30;;;;;;5093433;28;20419;-73
2022/05/10 03:24:13;;;;;;;8.80;3.80;;;15.30;57.60;;;;;;5092096;28;20020;-73
2022/05/10 03:26:48;;;;;;;5.03;3.97;;;15.30;57.80;;;;;;5093331;28;20024;-73
2022/05/10 03:29:15;;;;;;;;;;;15.30;57.90;;;;;;5093720;28;20363;-73
2022/05/10 03:31:41;;;;;;;5.28;4.00;;;15.30;57.10;;;;;;5093328;28;19904;-73
2022/05/10 03:36:51;;;;;;;5.70;3.40;;;15.30;57.80;;;;;;5093141;28;20039;-73
2022/05/10 03:39:17;;;;;;;5.18;3.97;;;15.30;57.70;;;;;;5093015;28;20028;-73
2022/05/10 03:41:43;;;;;;;4.40;3.72;;;15.30;57.80;;;;;;5093011;28;20024;-73
2022/05/10 03:44:09;;;;;;;7.25;3.97;;;15.30;58.00;;;;;;5093002;28;20146;-73
2022/05/10 03:46:35;;;;;;;5.45;3.78;;;15.30;58.20;;;;;;5093031;28;20513;-73
2022/05/10 03:49:01;;;;;;;4.60;3.65;;;15.20;58.10;;;;;;5093235;28;20103;-73
2022/05/10 03:51:27;;;;;;;7.03;3.70;;;15.30;58.40;;;;;;5095329;28;20077;-73
2022/05/10 03:53:53;;;;;;;9.27;3.33;;;15.30;58.30;;;;;;5113256;28;20023;-73
2022/05/10 03:56:19;;;;;;;5.32;4.20;;;15.20;58.30;;;;;;5113144;28;20020;-74
2022/05/10 03:58:45;;;;;;;5.78;4.45;;;15.30;58.50;;;;;;5112923;28;20550;-74
2022/05/10 04:01:11;;;;;;;5.57;3.53;;;15.30;58.60;;;;;;5113100;28;20500;-73
2022/05/10 04:03:37;;;;;;;5.68;4.05;;;15.30;58.60;;;;;;5113158;28;20020;-73
2022/05/10 04:06:04;;;;;;;6.18;3.78;;;15.30;59.10;;;;;;5113008;28;20465;-73
2022/05/10 04:08:30;;;;;;;3.85;3.45;;;15.30;58.60;;;;;;5113004;28;20042;-73
2022/05/10 04:11:04;;;;;;;7.97;3.75;;;15.30;58.60;;;;;;5094712;28;20027;-73
2022/05/10 04:13:31;;;;;;;;;;;15.40;58.80;;;;;;5110871;28;20497;-73
2022/05/10 04:15:58;;;;;;;5.65;3.85;;;15.40;58.10;;;;;;5092462;28;19915;-73
2022/05/10 04:18:24;;;;;;;5.97;4.10;;;15.40;58.30;;;;;;5092470;28;20020;-73
2022/05/10 04:20:49;;;;;;;5.07;4.15;;;15.50;58.50;;;;;;5092553;28;20012;-73
2022/05/10 04:23:16;;;;;;;4.15;3.30;;;15.50;58.70;;;;;;5097628;28;20161;-73
2022/05/10 04:25:43;;;;;;;4.13;3.42;;;15.50;58.60;;;;;;5099110;28;20019;-74
2022/05/10 04:28:09;;;;;;;4.20;3.65;;;15.60;58.70;;;;;;5099093;28;20064;-73
2022/05/10 04:30:35;;;;;;;6.90;3.90;;;15.60;58.70;;;;;;5099409;28;20453;-73
2022/05/10 04:33:01;;;;;;;6.85;4.45;;;15.60;58.80;;;;;;5099102;28;20051;-73
2022/05/10 04:35:27;;;;;;;7.72;3.97;;;15.70;58.80;;;;;;5100187;28;20044;-73
2022/05/10 04:37:53;;;;;;;7.47;5.05;;;15.70;58.80;;;;;;5099190;28;20035;-73
2022/05/10 04:43:05;;;;;;;5.47;4.50;;;15.80;59.30;;;;;;5099216;28;20077;-73
2022/05/10 04:45:32;;;;;;;7.35;4.68;;;15.90;59.40;;;;;;5080825;28;20028;-74
2022/05/10 04:47:58;;;;;;;6.63;3.80;;;15.90;59.40;;;;;;5099144;28;20023;-73
2022/05/10 04:50:24;;;;;;;6.07;4.78;;;16.00;59.10;;;;;;5104441;28;20017;-73
2022/05/10 04:52:50;;;;;;;4.47;3.60;;;16.00;59.00;;;;;;5119448;28;20031;-73
2022/05/10 04:55:15;;;;;;;5.18;3.88;;;16.10;58.90;;;;;;5119345;28;20507;-74
2022/05/10 04:57:41;;;;;;;4.95;3.70;;;16.20;58.80;;;;;;5119335;28;20021;-73
2022/05/10 05:00:11;;;;;;;6.38;4.55;;;16.20;58.70;;;;;;5119139;28;20485;-73
2022/05/10 05:02:38;;;;;;;6.85;4.47;;;16.30;58.70;;;;;;5119509;28;20103;-74
2022/05/10 05:05:05;;;;;;;4.85;3.50;;;16.30;58.60;;;;;;5119252;28;20469;-73
2022/05/10 05:07:31;;;;;;;5.32;3.63;;;16.40;58.50;;;;;;5119210;28;20106;-73
2022/05/10 05:09:56;;;;;;;6.07;3.85;;;16.50;58.50;;;;;;5100953;28;20114;-73
2022/05/10 05:12:24;;;;;;;4.68;3.88;;;16.50;58.30;;;;;;5119473;28;20044;-73
2022/05/10 05:14:50;;;;;;;4.85;3.88;;;16.60;58.30;;;;;;5105525;28;20389;-73
2022/05/10 05:17:16;;;;;;;5.75;3.92;;;16.60;58.20;;;;;;5098549;28;20107;-73
2022/05/10 05:19:41;;;;;;;7.82;4.53;;;16.70;58.70;;;;;;5098758;28;20058;-73
2022/05/10 05:22:07;;;;;;;9.63;4.55;;;16.80;58.70;;;;;;5098660;28;20012;-74
2022/05/10 05:24:36;;;;;;;7.25;5.30;;;16.90;58.20;;;;;;5080526;28;20028;-73
2022/05/10 05:27:02;;;;;;;8.38;4.97;;;16.90;58.10;;;;;;5080840;28;20448;-73
2022/05/10 05:29:28;;;;;;;5.50;4.25;;;17.00;58.20;;;;;;5098799;28;20056;-73
2022/05/10 05:31:54;;;;;;;7.70;4.53;;;17.00;58.20;;;;;;5098563;28;20024;-74
2022/05/10 05:34:19;;;;;;;7.45;4.50;;;17.10;58.00;;;;;;5095294;28;20434;-73
2022/05/10 05:37:32;;;;;;;13.43;9.98;;;17.10;57.90;;;;;;5095176;28;20024;-74
2022/05/10 05:39:32;;;;;;;7.28;5.38;;;17.20;57.90;;;;;;5095055;28;20024;-73
2022/05/10 05:41:58;;;;;;;9.55;4.95;;;17.30;57.70;;;;;;5095349;28;20029;-73
2022/05/10 05:44:23;;;;;;;5.95;4.90;;;17.40;57.60;;;;;;5095255;28;20485;-73
2022/05/10 05:46:50;;;;;;;5.97;4.60;;;17.50;57.50;;;;;;5095245;28;20147;-73
2022/05/10 05:49:16;;;;;;;8.38;4.50;;;17.50;57.40;;;;;;5103046;28;20072;-73
2022/05/10 05:51:42;;;;;;;8.82;4.50;;;17.60;57.30;;;;;;5097194;28;20122;-74
2022/05/10 05:54:09;;;;;;;7.93;5.03;;;17.70;57.20;;;;;;5097119;28;20034;-73
2022/05/10 05:56:35;;;;;;;12.68;5.00;;;17.70;57.00;;;;;;5096722;28;20026;-74
2022/05/10 05:59:01;;;;;;;5.65;4.30;;;17.80;56.90;;;;;;5096622;28;20048;-73
2022/05/10 06:01:27;;;;;;;10.15;5.40;;;17.90;56.80;;;;;;5115234;28;20030;-73
2022/05/10 06:03:55;;;;;;;8.77;4.85;;;18.00;56.60;;;;;;5115296;28;20031;-73
2022/05/10 06:06:21;;;;;;;8.48;4.53;;;18.10;56.40;;;;;;5115280;28;20533;-74
2022/05/10 06:08:47;;;;;;;7.97;5.28;;;18.10;56.30;;;;;;5097160;28;20053;-73
2022/05/10 06:11:14;;;;;;;12.88;6.88;;;18.20;56.00;;;;;;5115314;28;20471;-74
2022/05/10 06:13:40;;;;;;;11.13;5.75;;;18.30;55.80;;;;;;5111334;28;20020;-74
2022/05/10 06:16:07;;;;;;;11.15;5.68;;;18.30;55.70;;;;;;5094749;28;20028;-73
2022/05/10 06:18:34;;;;;;;8.30;5.45;;;18.40;55.60;;;;;;5094772;28;20028;-74
2022/05/10 06:21:00;;;;;;;8.00;4.95;;;18.40;55.50;;;;;;5076610;28;20026;-74
2022/05/10 06:23:26;;;;;;;11.43;6.43;;;18.50;55.50;;;;;;5094721;28;20024;-74
2022/05/10 06:25:52;;;;;;;9.15;5.75;;;18.60;55.40;;;;;;5098147;28;20039;-74
2022/05/10 06:28:19;;;;;;;8.48;5.97;;;18.70;55.20;;;;;;5094195;28;20028;-74
2022/05/10 06:30:46;;;;;;;9.35;5.47;;;18.70;54.90;;;;;;5094333;28;20028;-74
2022/05/10 06:33:12;;;;;;;9.77;5.68;;;18.80;54.90;;;;;;5096960;28;20025;-74
2022/05/10 06:35:39;;;;;;;15.68;6.70;;;18.80;54.80;;;;;;5114162;28;20027;-74
2022/05/10 06:38:19;;;;;;;11.88;6.80;;;18.90;54.50;;;;;;5093866;28;20151;-73
2022/05/10 06:40:47;;;;;;;16.92;7.78;;;18.90;54.40;;;;;;5076092;28;20024;-72
2022/05/10 06:43:13;;;;;;;12.60;6.95;;;19.00;54.00;;;;;;5076039;28;20021;-73
2022/05/10 06:45:42;;;;;;;13.65;8.07;;;19.00;53.80;;;;;;5096790;28;20494;-75
2022/05/10 06:48:09;;;;;;;15.20;7.55;;;19.10;53.70;;;;;;5114506;28;20027;-74
2022/05/10 06:50:36;;;;;;;16.95;8.02;;;19.10;53.60;;;;;;5114374;28;20019;-74
2022/05/10 06:53:02;;;;;;;14.63;8.13;;;19.20;53.50;;;;;;5114548;28;20020;-74
2022/05/10 06:55:29;;;;;;;14.15;7.95;;;19.30;53.40;;;;;;5114464;28;20020;-73
2022/05/10 06:57:56;;;;;;;16.20;9.07;;;19.40;53.00;;;;;;5113038;28;20019;-76
2022/05/10 07:00:22;;;;;;;16.75;9.07;;;19.40;52.70;;;;;;5096079;28;20547;-74
2022/05/10 07:02:48;;;;;;;22.02;9.20;;;19.50;52.60;;;;;;5096105;28;20045;-77
2022/05/10 07:05:16;;;;;;;19.83;8.68;;;19.60;52.60;;;;;;5095939;28;20019;-81
2022/05/10 07:07:42;;;;;;;16.58;8.45;;;19.70;52.40;;;;;;5114319;28;20115;-80
2022/05/10 07:10:10;;;;;;;13.73;9.02;;;19.80;52.10;;;;;;5095690;28;20076;-76
2022/05/10 07:12:39;;;;;;;13.52;8.13;;;19.80;51.90;;;;;;5114051;28;20034;-79
2022/05/10 07:15:06;;;;;;;16.75;8.45;;;19.90;51.70;;;;;;5092603;28;20446;-78
2022/05/10 07:17:32;;;;;;;16.95;8.50;;;20.00;51.60;;;;;;5089821;28;20062;-80
2022/05/10 07:19:57;;;;;;;18.50;8.77;;;20.10;51.40;;;;;;5095921;28;20051;-76
2022/05/10 07:22:25;;;;;;;19.77;9.05;;;20.20;51.30;;;;;;5095967;28;20016;-79
2022/05/10 07:24:51;;;;;;;15.30;8.27;;;20.20;51.00;;;;;;5094878;28;20107;-78
2022/05/10 07:27:17;;;;;;;14.98;8.63;;;20.40;50.90;;;;;;5113883;28;20030;-82
2022/05/10 07:29:43;;;;;;;10.73;7.20;;;20.50;50.60;;;;;;5113782;28;20027;-78
2022/05/10 07:32:10;;;;;;;18.38;8.88;;;20.50;50.50;;;;;;5113704;28;20023;-79
2022/05/10 07:34:36;;;;;;;15.13;8.40;;;20.60;49.80;;;;;;5113637;28;20065;-81
2022/05/10 07:37:02;;;;;;;15.07;8.10;;;20.60;49.80;;;;;;5111874;28;20034;-81
2022/05/10 07:39:28;;;;;;;17.48;7.68;;;20.70;49.70;;;;;;5113476;28;20027;-81
2022/05/10 07:41:54;;;;;;;18.45;7.43;;;20.70;48.30;;;;;;5095541;28;20092;-77
2022/05/10 07:44:22;;;;;;;13.90;6.45;;;20.80;47.70;;;;;;5113476;28;20481;-78
2022/05/10 07:46:49;;;;;;;13.80;6.63;;;20.90;47.60;;;;;;5102561;28;20388;-75
2022/05/10 07:49:14;;;;;;;13.27;6.93;;;20.90;47.00;;;;;;5093015;28;20028;-81
2022/05/10 07:51:41;;;;;;;18.50;7.00;;;21.00;46.80;;;;;;5108695;28;20114;-81
2022/05/10 07:54:07;;;;;;;19.00;8.70;;;21.10;47.00;;;;;;5092857;28;20016;-82
2022/05/10 07:56:33;;;;;;;14.93;5.53;;;21.20;46.70;;;;;;5092002;28;20082;-80
2022/05/10 07:58:59;;;;;;;12.63;6.63;;;21.20;46.30;;;;;;5074205;28;20071;-79
2022/05/10 08:01:26;;;;;;;12.50;5.55;;;21.30;46.30;;;;;;5092780;28;20012;-77
2022/05/10 08:03:52;;;;;;;12.73;5.53;;;21.30;45.90;;;;;;5092908;28;20048;-80
2022/05/10 08:06:20;;;;;;;8.70;5.50;;;21.40;45.50;;;;;;5092913;28;20020;-79
2022/05/10 08:08:46;;;;;;;8.73;5.63;;;21.50;45.70;;;;;;5092836;28;20024;-81
2022/05/10 08:11:12;;;;;;;7.75;4.63;;;21.60;45.00;;;;;;5092755;28;20024;-79
2022/05/10 08:13:39;;;;;;;8.65;5.47;;;21.60;45.40;;;;;;5092703;28;20031;-78
2022/05/10 08:16:08;;;;;;;11.02;6.30;;;21.70;44.70;;;;;;5092673;28;20107;-78
2022/05/10 08:18:35;;;;;;;9.90;5.68;;;21.70;43.90;;;;;;5092583;28;20024;-75
2022/05/10 08:21:01;;;;;;;10.82;5.93;;;21.70;43.50;;;;;;5092893;28;20113;-82
2022/05/10 08:23:32;;;;;;;9.80;5.80;;;21.80;43.30;;;;;;5092742;28;20020;-79
2022/05/10 08:25:59;;;;;;;25.02;6.25;;;21.90;43.50;;;;;;5074900;28;20074;-81
2022/05/10 08:28:29;;;;;;;8.98;5.97;;;21.90;43.80;;;;;;5092721;28;20020;-78
2022/05/10 08:30:55;;;;;;;12.27;5.75;;;22.00;44.40;;;;;;5092613;28;20377;-80
2022/05/10 08:33:27;;;;;;;14.95;5.75;;;22.00;43.50;;;;;;5092626;28;20514;-80
2022/05/10 08:35:55;;;;;;;11.15;6.07;;;22.10;43.40;;;;;;5092690;28;20050;-81
2022/05/10 08:38:22;;;;;;;11.50;5.10;;;22.20;42.90;;;;;;5092850;28;20104;-79
2022/05/10 08:41:01;;;;;;;8.48;5.05;;;22.20;42.90;;;;;;5074612;28;20077;-78
2022/05/10 08:43:36;;;;;;;7.18;4.90;;;22.30;43.20;;;;;;5092551;28;20044;-78
2022/05/10 08:46:03;;;;;;;17.75;6.45;;;22.30;43.20;;;;;;5108460;28;20019;-80
2022/05/10 08:48:31;;;;;;;12.43;6.68;;;22.40;43.40;;;;;;5112830;28;20026;-80
2022/05/10 08:50:58;;;;;;;12.00;6.80;;;22.50;42.70;;;;;;5112797;28;20489;-79
2022/05/10 08:53:25;;;;;;;14.32;6.22;;;22.60;43.10;;;;;;5112733;28;20023;-81
2022/05/10 08:56:05;;;;;;;12.02;7.32;;;22.60;42.90;;;;;;5112754;28;20095;-79
2022/05/10 08:58:54;;;;;;;12.45;6.55;;;22.70;42.70;;;;;;5112791;28;20047;-76
2022/05/10 09:01:28;;;;;;;9.88;5.63;;;22.70;42.40;;;;;;5112865;28;20080;-79
2022/05/10 09:03:57;;;;;;;;;;;22.80;42.70;;;;;;5113139;28;20089;-80
2022/05/10 09:06:22;;;;;;;11.27;6.95;;;22.90;43.90;;;;;;5094413;28;19904;-77
2022/05/10 09:08:54;;;;;;;10.73;5.75;;;22.90;42.40;;;;;;5114626;28;20027;-78
2022/05/10 09:11:22;;;;;;;9.90;5.80;;;23.00;42.60;;;;;;5116603;28;20093;-77
2022/05/10 09:13:48;;;;;;;8.05;5.22;;;23.10;43.00;;;;;;5111520;28;20012;-79
2022/05/10 09:16:15;;;;;;;8.00;5.75;;;23.10;42.70;;;;;;5096154;28;20380;-77
2022/05/10 09:18:45;;;;;;;7.10;5.75;;;23.20;42.70;;;;;;5096094;28;20016;-75
2022/05/10 09:21:16;;;;;;;9.02;5.63;;;23.20;42.90;;;;;;5077879;28;20012;-81
2022/05/10 09:24:25;;;;;;;10.23;5.88;;;23.30;42.50;;;;;;5096171;28;20744;-80
2022/05/10 09:26:56;;;;;;;9.25;5.45;;;23.40;42.40;;;;;;5013613;28;20109;-73
2022/05/10 09:29:33;;;;;;;8.95;5.10;;;23.50;42.20;;;;;;5081435;28;20056;-78
2022/05/10 09:35:09;;;;;;;7.25;5.20;;;23.60;41.70;;;;;;5095611;28;20074;-77
2022/05/10 09:38:06;;;;;;;12.23;4.55;;;23.70;41.20;;;;;;5095495;28;20021;-80
2022/05/10 09:40:41;;;;;;;8.85;5.40;;;23.70;41.50;;;;;;5095668;28;20028;-79
2022/05/10 09:43:25;;;;;;;7.45;4.80;;;23.80;40.80;;;;;;5098993;28;20096;-77
2022/05/10 09:46:11;;;;;;;12.40;4.70;;;23.80;40.20;;;;;;5097900;28;20023;-80
2022/05/10 09:48:38;;;;;;;8.02;4.78;;;23.90;40.70;;;;;;5097501;28;20020;-77
2022/05/10 09:51:29;;;;;;;10.57;4.78;;;24.00;41.00;;;;;;5115636;28;20020;-79
2022/05/10 09:53:56;;;;;;;9.52;4.65;;;24.00;41.10;;;;;;5097216;28;20401;-80
2022/05/10 09:56:44;;;;;;;12.32;5.28;;;24.10;40.20;;;;;;5113255;28;20024;-81
2022/05/10 09:59:22;;;;;;;15.45;7.03;;;24.20;40.20;;;;;;5094869;28;20082;-74
2022/05/10 10:01:54;;;;;;;8.63;4.47;;;24.20;39.80;;;;;;5095128;28;20031;-80
2022/05/10 10:04:28;;;;;;;12.13;4.40;;;24.20;40.20;;;;;;5081691;28;20074;-79
2022/05/10 10:07:18;;;;;;;9.27;4.57;;;24.30;40.00;;;;;;5114478;28;20024;-79
2022/05/10 10:09:47;;;;;;;12.35;5.07;;;24.30;39.70;;;;;;5103627;28;20024;-75
2022/05/10 10:12:37;;;;;;;9.35;4.07;;;24.40;38.90;;;;;;5099221;28;20028;-78
2022/05/10 10:15:25;;;;;;;17.70;8.68;;;24.50;39.40;;;;;;5115205;28;20023;-75
2022/05/10 10:18:01;;;;;;;25.17;8.95;;;24.50;39.10;;;;;;5082407;28;20031;-76
2022/05/10 10:20:27;;;;;;;15.32;8.18;;;24.60;39.00;;;;;;5094312;28;20099;-83
2022/05/10 10:22:57;;;;;;;23.42;8.23;;;24.60;39.30;;;;;;5108838;28;20112;-76
2022/05/10 10:25:44;;;;;;;19.42;9.20;;;24.70;37.90;;;;;;5076545;28;20028;-78
2022/05/10 10:28:31;;;;;;;25.23;9.50;;;24.70;38.50;;;;;;5076710;28;20031;-78
2022/05/10 10:30:58;;;;;;;24.88;9.05;;;24.80;38.90;;;;;;5076998;28;20161;-77
2022/05/10 10:33:52;;;;;;;18.70;7.38;;;24.80;38.50;;;;;;5094741;28;20020;-79
2022/05/10 10:36:27;;;;;;;19.70;6.65;;;24.90;37.90;;;;;;5094543;28;20085;-79
2022/05/10 10:39:01;;;;;;;14.73;6.57;;;25.00;37.20;;;;;;5094665;28;20094;-81
2022/05/10 10:41:47;;;;;;;14.90;6.22;;;25.00;36.60;;;;;;5096742;28;20107;-82
2022/05/10 10:44:30;;;;;;;9.52;5.13;;;25.10;37.10;;;;;;5097148;28;20019;-77
2022/05/10 10:47:31;;;;;;;11.73;5.03;;;25.20;37.10;;;;;;5114734;28;20019;-77
2022/05/10 10:50:10;;;;;;;10.05;5.25;;;25.20;37.60;;;;;;5078878;28;20040;-81
2022/05/10 10:52:36;;;;;;;11.75;6.00;;;25.30;37.00;;;;;;5093942;28;20024;-78
2022/05/10 10:55:06;;;;;;;13.70;6.25;;;25.40;36.50;;;;;;5094160;28;20024;-80
2022/05/10 10:57:51;;;;;;;13.52;5.50;;;25.40;36.20;;;;;;5094729;28;20024;-81
2022/05/10 11:00:19;;;;;;;14.50;5.30;;;25.50;36.10;;;;;;5094397;28;20036;-84
2022/05/10 11:03:08;;;;;;;8.02;4.25;;;25.60;36.50;;;;;;5098077;28;20035;-81
2022/05/10 11:05:56;;;;;;;9.85;5.30;;;25.60;35.70;;;;;;5108313;28;20050;-77
2022/05/10 11:08:44;;;;;;;7.50;4.05;;;25.70;35.30;;;;;;5094032;28;20024;-78
2022/05/10 11:11:38;;;;;;;12.57;4.07;;;25.80;34.70;;;;;;5094051;28;20016;-82
2022/05/10 11:14:04;;;;;;;;;;;25.80;34.60;;;;;;5095128;28;20376;-75
2022/05/10 11:16:58;;;;;;;6.15;4.28;;;25.90;36.10;;;;;;5075911;28;20041;-77
2022/05/10 11:19:42;;;;;;;7.90;3.33;;;26.00;33.90;;;;;;5075577;28;20108;-80
2022/05/10 11:22:25;;;;;;;;;;;26.00;33.50;;;;;;5094091;28;20446;-80
2022/05/10 11:24:58;;;;;;;7.15;3.25;;;26.00;35.10;;;;;;5093944;28;19900;-77
2022/05/10 11:28:01;;;;;;;6.68;3.60;;;26.10;33.30;;;;;;5109659;28;20051;-77
2022/05/10 11:30:46;;;;;;;7.82;4.13;;;26.10;33.40;;;;;;5113131;28;20085;-80
2022/05/10 11:33:34;;;;;;;8.00;4.03;;;26.10;32.70;;;;;;5112903;28;20035;-79
2022/05/10 11:36:05;;;;;;;7.15;3.97;;;26.20;33.20;;;;;;5113721;28;20485;-77
2022/05/10 11:38:57;;;;;;;7.57;4.35;;;26.20;32.70;;;;;;5090116;28;20028;-81
2022/05/10 11:42:00;;;;;;;7.82;3.53;;;26.20;32.90;;;;;;5105922;28;20039;-78
2022/05/10 11:44:50;;;;;;;8.52;3.40;;;26.30;31.60;;;;;;5064590;28;20032;-77
2022/05/10 11:47:28;;;;;;;12.43;3.17;;;26.30;31.00;;;;;;5113756;28;20012;-78
2022/05/10 11:50:27;;;;;;;5.88;3.10;;;26.40;31.30;;;;;;5113751;28;20469;-75
2022/05/10 11:53:16;;;;;;;7.82;3.60;;;26.40;31.00;;;;;;5113765;28;20022;-78
2022/05/10 11:56:02;;;;;;;3.65;2.60;;;26.40;31.00;;;;;;5095337;28;20031;-80
2022/05/10 11:58:31;;;;;;;6.25;3.17;;;26.50;30.20;;;;;;5113714;28;20048;-78
2022/05/10 12:01:02;;;;;;;4.28;2.60;;;26.50;29.60;;;;;;5113493;28;20016;-76
2022/05/10 12:03:49;;;;;;;7.50;2.70;;;26.50;29.90;;;;;;5095333;28;20111;-79
2022/05/10 12:06:24;;;;;;;4.82;2.78;;;26.50;30.10;;;;;;5095159;28;20362;-79
2022/05/10 12:08:52;;;;;;;12.00;3.78;;;26.50;29.90;;;;;;5113281;28;20503;-77
2022/05/10 12:11:32;;;;;;;7.03;3.47;;;26.50;29.80;;;;;;5113574;28;20035;-78
2022/05/10 12:22:50;;;;;;;6.68;3.30;;;26.70;28.90;;;;;;5113637;28;20059;-80
2022/05/10 12:26:02;;;;;;;8.57;3.17;;;26.70;29.30;;;;;;5113510;28;20016;-76
2022/05/10 12:28:48;;;;;;;19.38;4.68;;;26.70;29.10;;;;;;5109586;28;20024;-80
2022/05/10 12:31:32;;;;;;;9.82;3.13;;;26.80;29.30;;;;;;5094884;28;20028;-77
2022/05/10 12:34:08;;;;;;;;;;;26.80;29.40;;;;;;5113837;28;20022;-78
2022/05/10 12:36:38;;;;;;;5.45;3.00;;;26.90;30.20;;;;;;5112952;28;20005;-82
2022/05/10 12:39:26;;;;;;;14.07;2.80;;;27.00;28.70;;;;;;5108363;28;20458;-80
2022/05/10 12:42:33;;;;;;;3.35;2.03;;;27.00;28.50;;;;;;5092844;28;20020;-81
2022/05/10 12:45:26;;;;;;;6.75;2.35;;;27.00;28.00;;;;;;5025138;28;20030;-76
2022/05/10 12:48:19;;;;;;;5.15;2.60;;;27.10;27.60;;;;;;5078605;28;20028;-80
2022/05/10 12:51:07;;;;;;;4.53;2.30;;;27.10;27.90;;;;;;5096763;28;20105;-81
2022/05/10 12:53:42;;;;;;;3.90;2.30;;;27.20;28.30;;;;;;5096406;28;20173;-77
2022/05/10 12:56:27;;;;;;;3.88;2.22;;;27.20;27.40;;;;;;5078392;28;20024;-77
2022/05/10 12:59:03;;;;;;;3.40;1.95;;;27.20;26.90;;;;;;5099479;28;20043;-77
2022/05/10 13:01:34;;;;;;;1.60;1.50;;;27.30;26.30;;;;;;5098868;28;20154;-78
2022/05/10 13:04:08;;;;;;;4.97;1.95;;;27.30;25.80;;;;;;5078598;28;20012;-74
2022/05/10 13:06:55;;;;;;;2.70;1.50;;;27.40;26.20;;;;;;5101568;28;20047;-78
2022/05/10 13:09:49;;;;;;;2.10;1.90;;;27.40;26.30;;;;;;5101594;28;20020;-78
2022/05/10 13:12:28;;;;;;;2.55;1.63;;;27.40;25.90;;;;;;5094905;28;20043;-75
2022/05/10 13:15:11;;;;;;;5.68;1.73;;;27.50;25.30;;;;;;5100994;28;20477;-76
2022/05/10 13:17:41;;;;;;;2.38;1.70;;;27.50;25.30;;;;;;5078697;28;20353;-76
2022/05/10 13:20:12;;;;;;;2.42;1.95;;;27.50;25.20;;;;;;5078511;28;20020;-77
2022/05/10 13:22:47;;;;;;;2.38;2.03;;;27.60;25.60;;;;;;5096598;28;20031;-82
2022/05/10 13:25:13;;;;;;;2.53;1.80;;;27.60;25.40;;;;;;5096297;28;20027;-77
2022/05/10 13:27:41;;;;;;;6.13;1.67;;;27.60;24.90;;;;;;5096317;28;20028;-77
2022/05/10 13:30:20;;;;;;;4.18;2.40;;;27.70;25.30;;;;;;5096316;28;20020;-82
2022/05/10 13:32:52;;;;;;;4.68;2.90;;;27.80;25.60;;;;;;5078324;28;20035;-79
2022/05/10 13:35:26;;;;;;;3.75;2.25;;;28.00;25.50;;;;;;5096059;28;20393;-77
2022/05/10 13:38:05;;;;;;;9.90;1.92;;;28.40;25.50;;;;;;5102041;28;20020;-73